createdAt,value
2022-12-27T00:01:34.153Z,100756.50
2022-12-27T00:04:01.925Z,100745.44
2022-12-27T00:06:30.315Z,100753.91
2022-12-27T00:08:58.661Z,100757.53
2022-12-27T00:11:32.123Z,100756.09
2022-12-27T00:14:06.207Z,100754.34
2022-12-27T00:16:34.628Z,100754.00
2022-12-27T00:19:02.537Z,100761.84
2022-12-27T00:21:30.377Z,100758.94
2022-12-27T00:23:59.902Z,100756.81
2022-12-27T00:26:29.843Z,100760.03
2022-12-27T00:28:58.530Z,100759.63
2022-12-27T00:31:28.787Z,100753.91
2022-12-27T00:34:00.952Z,100758.94
2022-12-27T00:36:30.768Z,100753.03
2022-12-27T00:39:00.241Z,100752.34
2022-12-27T00:41:28.463Z,100741.38
2022-12-27T00:43:56.148Z,100744.56
2022-12-27T00:46:23.776Z,100734.38
2022-12-27T00:48:51.390Z,100713.44
2022-12-27T00:51:22.845Z,100718.72
2022-12-27T00:53:51.658Z,100711.91
2022-12-27T00:56:22.654Z,100715.66
2022-12-27T00:59:10.733Z,100692.00
2022-12-27T01:01:39.306Z,100680.38
2022-12-27T01:04:07.216Z,100680.00
2022-12-27T01:06:35.766Z,100679.31
2022-12-27T01:09:04.596Z,100675.13
2022-12-27T01:11:32.932Z,100670.06
2022-12-27T01:14:03.485Z,100679.72
2022-12-27T01:16:34.431Z,100672.25
2022-12-27T01:19:02.523Z,100683.13
2022-12-27T01:21:31.110Z,100665.22
2022-12-27T01:23:59.195Z,100663.22
2022-12-27T01:26:26.828Z,100650.69
2022-12-27T01:28:55.059Z,100650.28
2022-12-27T01:31:27.863Z,100654.25
2022-12-27T01:33:57.715Z,100644.31
2022-12-27T01:36:27.057Z,100638.78
2022-12-27T01:38:55.480Z,100625.84
2022-12-27T01:41:41.193Z,100648.66
2022-12-27T01:44:39.807Z,100638.09
2022-12-27T01:47:45.852Z,100630.41
2022-12-27T01:50:19.420Z,100627.19
2022-12-27T01:52:53.272Z,100634.28
2022-12-27T01:55:23.436Z,100623.59
2022-12-27T01:57:53.775Z,100632.84
2022-12-27T02:00:22.132Z,100617.47
2022-12-27T02:02:51.380Z,100621.53
2022-12-27T02:05:21.085Z,100633.59
2022-12-27T02:08:01.059Z,100615.16
2022-12-27T02:10:29.692Z,100622.44
2022-12-27T02:12:58.350Z,100602.06
2022-12-27T02:15:26.192Z,100598.59
2022-12-27T02:17:53.843Z,100602.16
2022-12-27T02:20:23.368Z,100613.66
2022-12-27T02:23:15.443Z,100608.84
2022-12-27T02:25:51.623Z,100598.47
2022-12-27T02:28:37.978Z,100594.69
2022-12-27T02:31:11.089Z,100585.38
2022-12-27T02:33:49.698Z,100594.28
2022-12-27T02:36:24.165Z,100574.28
2022-12-27T02:38:55.841Z,100590.41
2022-12-27T02:41:42.606Z,100594.34
2022-12-27T02:44:30.848Z,100600.91
2022-12-27T02:47:17.315Z,100586.28
2022-12-27T02:50:03.178Z,100581.66
2022-12-27T02:53:04.424Z,100580.38
2022-12-27T02:56:12.233Z,100573.00
2022-12-27T02:59:06.118Z,100553.59
2022-12-27T03:02:13.600Z,100552.78
2022-12-27T03:05:08.660Z,100551.53
2022-12-27T03:07:55.885Z,100540.31
2022-12-27T03:11:33.491Z,100529.84
2022-12-27T03:14:34.249Z,100531.94
2022-12-27T03:17:27.031Z,100517.63
2022-12-27T03:20:18.035Z,100518.03
2022-12-27T03:23:06.112Z,100517.94
2022-12-27T03:25:36.173Z,100508.50
2022-12-27T03:28:40.414Z,100498.03
2022-12-27T03:31:43.715Z,100501.41
2022-12-27T03:34:32.294Z,100496.50
2022-12-27T03:37:41.673Z,100494.88
2022-12-27T03:40:31.101Z,100485.78
2022-12-27T03:43:11.329Z,100489.50
2022-12-27T03:46:24.744Z,100484.75
2022-12-27T03:49:10.270Z,100476.50
2022-12-27T03:51:46.768Z,100471.66
2022-12-27T03:54:26.496Z,100466.41
2022-12-27T03:56:57.447Z,100473.94
2022-12-27T03:59:26.818Z,100452.16
2022-12-27T04:01:55.352Z,100464.47
2022-12-27T04:04:23.521Z,100470.47
2022-12-27T04:06:51.672Z,100472.34
2022-12-27T04:09:37.864Z,100464.97
2022-12-27T04:12:24.356Z,100457.88
2022-12-27T04:15:10.375Z,100446.63
2022-12-27T04:17:57.214Z,100447.25
2022-12-27T04:20:44.198Z,100436.47
2022-12-27T04:23:30.263Z,100435.00
2022-12-27T04:26:16.599Z,100422.16
2022-12-27T04:29:02.862Z,100423.97
2022-12-27T04:31:49.324Z,100416.88
2022-12-27T04:34:35.458Z,100420.69
2022-12-27T04:37:03.226Z,100410.94
2022-12-27T04:39:31.304Z,100414.34
2022-12-27T04:42:17.717Z,100401.59
2022-12-27T04:45:03.945Z,100395.53
2022-12-27T04:47:53.945Z,100386.22
2022-12-27T04:50:48.906Z,100383.31
2022-12-27T04:53:37.642Z,100378.28
2022-12-27T04:56:06.825Z,100372.19
2022-12-27T04:58:35.013Z,100383.25
2022-12-27T05:01:23.019Z,100384.41
2022-12-27T05:03:51.877Z,100372.09
2022-12-27T05:06:20.405Z,100377.19
2022-12-27T05:09:07.377Z,100371.53
2022-12-27T05:11:53.403Z,100359.16
2022-12-27T05:14:21.093Z,100374.28
2022-12-27T05:16:48.657Z,100364.00
2022-12-27T05:19:16.345Z,100373.13
2022-12-27T05:22:05.569Z,100371.19
2022-12-27T05:24:51.849Z,100359.38
2022-12-27T05:27:19.546Z,100347.34
2022-12-27T05:29:47.551Z,100366.03
2022-12-27T05:32:15.144Z,100341.66
2022-12-27T05:34:42.583Z,100332.63
2022-12-27T05:37:10.045Z,100330.69
2022-12-27T05:39:37.871Z,100351.88
2022-12-27T05:42:05.661Z,100340.59
2022-12-27T05:44:33.182Z,100336.38
2022-12-27T05:47:00.683Z,100331.25
2022-12-27T05:49:28.221Z,100329.94
2022-12-27T05:51:57.991Z,100326.97
2022-12-27T05:54:25.622Z,100344.53
2022-12-27T05:56:53.072Z,100327.63
2022-12-27T05:59:22.819Z,100319.31
2022-12-27T06:01:51.729Z,100319.84
2022-12-27T06:04:19.360Z,100325.50
2022-12-27T06:06:46.846Z,100332.88
2022-12-27T06:09:14.904Z,100325.47
2022-12-27T06:11:42.536Z,100335.00
2022-12-27T06:14:10.143Z,100338.97
2022-12-27T06:16:37.817Z,100334.56
2022-12-27T06:19:05.507Z,100334.06
2022-12-27T06:21:33.086Z,100323.66
2022-12-27T06:24:00.846Z,100337.63
2022-12-27T06:26:29.965Z,100327.44
2022-12-27T06:28:58.560Z,100328.03
2022-12-27T06:31:27.318Z,100322.75
2022-12-27T06:33:56.103Z,100314.53
2022-12-27T06:36:30.375Z,100318.06
2022-12-27T06:38:59.714Z,100323.81
2022-12-27T06:41:27.342Z,100316.44
2022-12-27T06:43:56.918Z,100294.13
2022-12-27T06:46:25.095Z,100300.50
2022-12-27T06:48:52.940Z,100297.06
2022-12-27T06:51:21.336Z,100294.56
2022-12-27T06:53:49.423Z,100285.16
2022-12-27T06:56:19.973Z,100278.69
2022-12-27T06:58:49.166Z,100289.13
2022-12-27T07:01:18.483Z,100273.50
2022-12-27T07:03:51.236Z,100277.53
2022-12-27T07:06:19.942Z,100273.66
2022-12-27T07:08:48.905Z,100274.41
2022-12-27T07:11:18.016Z,100274.66
2022-12-27T07:13:48.431Z,100278.72
2022-12-27T07:16:19.535Z,100283.25
2022-12-27T07:18:49.834Z,100281.19
2022-12-27T07:21:21.915Z,100248.72
2022-12-27T07:23:50.458Z,100248.59
2022-12-27T07:26:23.588Z,100243.53
2022-12-27T07:28:54.682Z,100241.94
2022-12-27T07:31:24.661Z,100225.91
2022-12-27T07:33:52.878Z,100236.16
2022-12-27T07:36:23.589Z,100230.38
2022-12-27T07:38:51.647Z,100227.44
2022-12-27T07:41:19.446Z,100238.63
2022-12-27T07:43:49.402Z,100221.06
2022-12-27T07:46:20.298Z,100216.78
2022-12-27T07:48:48.361Z,100216.50
2022-12-27T07:51:17.636Z,100226.41
2022-12-27T07:53:45.353Z,100214.94
2022-12-27T07:56:20.149Z,100216.16
2022-12-27T07:58:51.861Z,100200.50
2022-12-27T08:01:21.395Z,100210.41
2022-12-27T08:03:49.118Z,100194.28
2022-12-27T08:06:24.147Z,100196.38
2022-12-27T08:08:55.005Z,100195.00
2022-12-27T08:11:25.074Z,100187.66
2022-12-27T08:13:53.426Z,100182.16
2022-12-27T08:16:23.738Z,100185.09
2022-12-27T08:18:53.310Z,100173.59
2022-12-27T08:21:21.290Z,100162.69
2022-12-27T08:23:48.838Z,100153.69
2022-12-27T08:26:16.351Z,100165.78
2022-12-27T08:28:43.907Z,100152.06
2022-12-27T08:31:13.182Z,100146.19
2022-12-27T08:33:42.291Z,100145.16
2022-12-27T08:36:52.954Z,100143.53
2022-12-27T08:39:00.395Z,100146.50
2022-12-27T08:41:28.008Z,100143.66
2022-12-27T08:43:55.777Z,100146.78
2022-12-27T08:46:23.340Z,100138.06
2022-12-27T08:48:51.735Z,100125.66
2022-12-27T08:51:31.400Z,100121.25
2022-12-27T08:54:03.877Z,100115.16
2022-12-27T08:56:31.358Z,100116.22
2022-12-27T08:58:59.011Z,100105.84
2022-12-27T09:01:26.633Z,100110.88
2022-12-27T09:03:54.404Z,100116.50
2022-12-27T09:06:23.697Z,100101.28
2022-12-27T09:08:52.493Z,100088.28
2022-12-27T09:11:27.113Z,100099.53
2022-12-27T09:13:55.889Z,100094.63
2022-12-27T09:16:27.692Z,100097.16
2022-12-27T09:18:57.231Z,100081.19
2022-12-27T09:21:27.846Z,100088.88
2022-12-27T09:23:56.017Z,100085.63
2022-12-27T09:26:26.753Z,100071.91
2022-12-27T09:28:54.814Z,100061.25
2022-12-27T09:31:23.988Z,100073.94
2022-12-27T09:33:52.838Z,100076.31
2022-12-27T09:36:25.762Z,100061.09
2022-12-27T09:38:54.539Z,100051.78
2022-12-27T09:44:43.796Z,100061.50
2022-12-27T09:47:24.412Z,100064.75
2022-12-27T09:50:02.313Z,100049.28
2022-12-27T09:52:40.824Z,100043.66
2022-12-27T09:55:18.077Z,100051.31
2022-12-27T09:57:47.553Z,100043.78
2022-12-27T10:00:30.285Z,100035.50
2022-12-27T10:03:04.904Z,100040.66
2022-12-27T10:05:34.637Z,100043.50
2022-12-27T10:08:34.196Z,100030.91
2022-12-27T10:11:32.683Z,100037.28
2022-12-27T10:14:17.182Z,100013.34
2022-12-27T10:17:13.197Z,100022.31
2022-12-27T10:20:01.090Z,100007.69
2022-12-27T10:22:43.091Z,100024.06
2022-12-27T10:25:16.073Z,100009.72
2022-12-27T10:27:44.102Z,100009.94
2022-12-27T10:30:16.436Z,100014.50
2022-12-27T10:32:44.915Z,100005.94
2022-12-27T10:35:21.079Z,99999.28
2022-12-27T10:37:49.556Z,100010.50
2022-12-27T10:40:22.887Z,99988.03
2022-12-27T10:43:18.707Z,99978.81
2022-12-27T10:45:46.263Z,99970.44
2022-12-27T10:48:47.452Z,99963.19
2022-12-27T10:51:20.074Z,99959.66
2022-12-27T10:53:47.614Z,99954.19
2022-12-27T10:56:16.915Z,99949.91
2022-12-27T10:58:50.282Z,99951.66
2022-12-27T11:01:25.099Z,99945.28
2022-12-27T11:04:08.440Z,99960.19
2022-12-27T11:06:36.114Z,99935.97
2022-12-27T11:09:28.558Z,99924.91
2022-12-27T11:12:23.956Z,99920.06
2022-12-27T11:15:02.164Z,99915.41
2022-12-27T11:18:02.092Z,99909.59
2022-12-27T11:20:37.801Z,99897.25
2022-12-27T11:23:16.582Z,99901.19
2022-12-27T11:26:01.926Z,99899.25
2022-12-27T11:28:33.763Z,99907.28
2022-12-27T11:31:05.215Z,99907.00
2022-12-27T11:33:54.802Z,99905.38
2022-12-27T11:36:34.011Z,99907.09
2022-12-27T11:39:02.075Z,99888.13
2022-12-27T11:41:38.675Z,99888.41
2022-12-27T11:44:26.751Z,99875.50
2022-12-27T11:47:06.557Z,99870.44
2022-12-27T11:49:44.245Z,99875.59
2022-12-27T11:52:31.661Z,99890.94
2022-12-27T11:55:14.303Z,99882.91
2022-12-27T11:58:06.670Z,99875.09
2022-12-27T12:00:46.291Z,99868.75
2022-12-27T12:03:39.249Z,99863.97
2022-12-27T12:06:24.488Z,99860.97
2022-12-27T12:09:30.319Z,99858.75
2022-12-27T12:12:09.073Z,99858.38
2022-12-27T12:14:42.484Z,99860.88
2022-12-27T12:17:35.861Z,99858.53
2022-12-27T12:20:37.900Z,99849.28
2022-12-27T12:23:13.125Z,99852.44
2022-12-27T12:26:06.365Z,99843.25
2022-12-27T12:29:13.888Z,99838.47
2022-12-27T12:31:55.570Z,99840.81
2022-12-27T12:34:41.666Z,99839.25
2022-12-27T12:37:27.353Z,99841.63
2022-12-27T12:40:22.590Z,99832.72
2022-12-27T12:42:58.000Z,99832.91
2022-12-27T12:46:06.242Z,99818.72
2022-12-27T12:49:04.980Z,99826.06
2022-12-27T12:51:35.536Z,99815.56
2022-12-27T12:54:28.211Z,99813.69
2022-12-27T12:57:46.037Z,99803.34
2022-12-27T13:00:26.045Z,99799.88
2022-12-27T13:03:15.785Z,99801.91
2022-12-27T13:05:57.833Z,99788.06
2022-12-27T13:08:53.011Z,99800.56
2022-12-27T13:11:37.907Z,99793.06
2022-12-27T13:14:20.158Z,99791.50
2022-12-27T13:16:59.718Z,99778.47
2022-12-27T13:19:48.697Z,99793.56
2022-12-27T13:22:34.565Z,99781.84
2022-12-27T13:25:20.850Z,99783.88
2022-12-27T13:27:54.679Z,99777.59
2022-12-27T13:30:29.516Z,99770.75
2022-12-27T13:33:11.764Z,99769.78
2022-12-27T13:36:03.388Z,99765.03
2022-12-27T13:38:49.315Z,99774.56
2022-12-27T13:41:38.083Z,99774.59
2022-12-27T13:44:15.606Z,99763.81
2022-12-27T13:47:01.399Z,99763.63
2022-12-27T13:49:49.688Z,99763.09
2022-12-27T13:52:44.436Z,99763.34
2022-12-27T13:55:25.658Z,99752.41
2022-12-27T13:58:17.650Z,99744.25
2022-12-27T14:01:15.923Z,99756.81
2022-12-27T14:04:22.858Z,99753.31
2022-12-27T14:07:08.831Z,99752.44
2022-12-27T14:10:11.769Z,99753.97
2022-12-27T14:13:01.809Z,99747.56
2022-12-27T14:15:56.935Z,99746.44
2022-12-27T14:18:30.377Z,99749.19
2022-12-27T14:21:19.409Z,99734.97
2022-12-27T14:24:11.084Z,99743.69
2022-12-27T14:27:15.606Z,99738.53
2022-12-27T14:30:01.618Z,99732.50
2022-12-27T14:32:49.626Z,99727.97
2022-12-27T14:35:54.507Z,99728.22
2022-12-27T14:38:39.901Z,99723.03
2022-12-27T14:41:10.320Z,99721.16
2022-12-27T14:43:59.178Z,99717.38
2022-12-27T14:46:45.693Z,99719.41
2022-12-27T14:49:51.079Z,99711.63
2022-12-27T14:52:44.563Z,99703.91
2022-12-27T14:55:32.262Z,99711.38
2022-12-27T14:58:29.667Z,99705.19
2022-12-27T15:01:26.625Z,99693.59
2022-12-27T15:04:06.763Z,99695.22
2022-12-27T15:07:08.385Z,99690.97
2022-12-27T15:09:51.172Z,99700.53
2022-12-27T15:12:38.708Z,99688.44
2022-12-27T15:15:42.797Z,99693.19
2022-12-27T15:18:28.707Z,99692.84
2022-12-27T15:21:44.092Z,99689.41
2022-12-27T15:24:21.498Z,99687.78
2022-12-27T15:27:03.591Z,99686.53
2022-12-27T15:29:51.408Z,99682.84
2022-12-27T15:32:53.593Z,99680.19
2022-12-27T15:35:59.139Z,99665.44
2022-12-27T15:38:35.559Z,99663.16
2022-12-27T15:41:08.714Z,99662.03
2022-12-27T15:44:00.714Z,99663.31
2022-12-27T15:46:36.328Z,99660.63
2022-12-27T15:49:24.924Z,99649.56
2022-12-27T15:52:19.750Z,99653.69
2022-12-27T15:55:18.190Z,99652.81
2022-12-27T15:57:54.641Z,99654.59
2022-12-27T16:00:31.087Z,99647.41
2022-12-27T16:03:03.744Z,99644.03
2022-12-27T16:05:46.269Z,99635.19
2022-12-27T16:08:32.695Z,99636.44
2022-12-27T16:11:02.603Z,99633.94
2022-12-27T16:13:42.440Z,99629.16
2022-12-27T16:16:33.472Z,99622.34
2022-12-27T16:19:22.132Z,99623.19
2022-12-27T16:21:50.042Z,99624.84
2022-12-27T16:24:25.466Z,99630.00
2022-12-27T16:27:03.083Z,99613.50
2022-12-27T16:29:36.633Z,99614.09
2022-12-27T16:32:22.593Z,99615.72
2022-12-27T16:34:55.308Z,99602.09
2022-12-27T16:37:44.637Z,99605.38
2022-12-27T16:40:40.721Z,99605.88
2022-12-27T16:43:08.248Z,99602.00
2022-12-27T16:45:55.423Z,99589.63
2022-12-27T16:48:34.614Z,99588.72
2022-12-27T16:51:12.743Z,99593.16
2022-12-27T16:53:40.125Z,99584.94
2022-12-27T16:56:29.094Z,99579.84
2022-12-27T16:58:57.127Z,99577.75
2022-12-27T17:01:36.765Z,99573.19
2022-12-27T17:04:04.456Z,99570.50
2022-12-27T17:06:33.523Z,99570.50
2022-12-27T17:09:11.325Z,99568.59
2022-12-27T17:11:44.724Z,99567.59
2022-12-27T17:14:18.581Z,99567.38
2022-12-27T17:16:50.092Z,99561.56
2022-12-27T17:19:31.943Z,99552.56
2022-12-27T17:22:05.488Z,99551.75
2022-12-27T17:24:33.527Z,99551.75
2022-12-27T17:27:45.342Z,99541.72
2022-12-27T17:30:23.982Z,99542.38
2022-12-27T17:33:20.621Z,99540.53
2022-12-27T17:36:14.577Z,99540.19
2022-12-27T17:38:47.659Z,99533.03
2022-12-27T17:42:01.093Z,99527.59
2022-12-27T17:44:40.473Z,99516.59
2022-12-27T17:47:29.823Z,99522.34
2022-12-27T17:50:06.808Z,99507.50
2022-12-27T17:52:53.194Z,99508.72
2022-12-27T17:55:45.019Z,99507.78
2022-12-27T17:58:16.277Z,99495.69
2022-12-27T18:00:54.767Z,99490.97
2022-12-27T18:03:26.241Z,99499.44
2022-12-27T18:05:53.819Z,99486.91
2022-12-27T18:08:34.168Z,99498.16
2022-12-27T18:11:04.838Z,99492.63
2022-12-27T18:13:37.463Z,99495.41
2022-12-27T18:16:18.510Z,99493.09
2022-12-27T18:18:48.820Z,99497.16
2022-12-27T18:21:26.228Z,99485.94
2022-12-27T18:23:55.007Z,99496.28
2022-12-27T18:26:34.030Z,99484.75
2022-12-27T18:29:01.608Z,99483.53
2022-12-27T18:31:48.678Z,99471.59
2022-12-27T18:34:41.040Z,99473.56
2022-12-27T18:37:21.259Z,99465.88
2022-12-27T18:40:00.506Z,99463.34
2022-12-27T18:42:37.748Z,99467.44
2022-12-27T18:45:26.448Z,99458.97
2022-12-27T18:47:56.926Z,99458.72
2022-12-27T18:50:30.919Z,99456.31
2022-12-27T18:53:08.081Z,99452.91
2022-12-27T18:55:36.877Z,99452.28
2022-12-27T18:58:20.451Z,99447.53
2022-12-27T19:01:06.506Z,99438.47
2022-12-27T19:03:40.139Z,99444.13
2022-12-27T19:06:11.932Z,99443.47
2022-12-27T19:08:51.404Z,99445.56
2022-12-27T19:11:21.672Z,99437.22
2022-12-27T19:13:52.875Z,99435.78
2022-12-27T19:16:29.003Z,99438.75
2022-12-27T19:19:02.802Z,99438.00
2022-12-27T19:21:36.581Z,99429.53
2022-12-27T19:24:29.539Z,99415.03
2022-12-27T19:27:02.598Z,99428.88
2022-12-27T19:29:37.930Z,99422.28
2022-12-27T19:32:10.371Z,99428.53
2022-12-27T19:34:56.484Z,99420.53
2022-12-27T19:37:29.461Z,99415.72
2022-12-27T19:39:58.610Z,99411.63
2022-12-27T19:42:31.849Z,99415.28
2022-12-27T19:44:59.889Z,99414.84
2022-12-27T19:47:28.058Z,99419.13
2022-12-27T19:49:55.664Z,99409.00
2022-12-27T19:52:26.383Z,99398.69
2022-12-27T19:55:02.386Z,99393.06
2022-12-27T19:57:31.103Z,99390.34
2022-12-27T19:59:58.704Z,99395.28
2022-12-27T20:02:26.992Z,99388.69
2022-12-27T20:04:54.625Z,99392.44
2022-12-27T20:07:25.305Z,99388.03
2022-12-27T20:09:52.975Z,99390.88
2022-12-27T20:12:20.431Z,99389.25
2022-12-27T20:14:48.296Z,99376.19
2022-12-27T20:17:15.802Z,99380.66
2022-12-27T20:19:43.290Z,99378.38
2022-12-27T20:22:10.827Z,99383.63
2022-12-27T20:24:38.727Z,99389.00
2022-12-27T20:27:06.378Z,99386.69
2022-12-27T20:29:33.939Z,99383.47
2022-12-27T20:32:01.632Z,99382.06
2022-12-27T20:34:29.166Z,99363.69
2022-12-27T20:36:58.327Z,99372.47
2022-12-27T20:39:25.834Z,99357.22
2022-12-27T20:41:53.276Z,99352.34
2022-12-27T20:44:20.781Z,99359.25
2022-12-27T20:46:48.667Z,99367.31
2022-12-27T20:49:16.176Z,99356.97
2022-12-27T20:51:43.767Z,99354.81
2022-12-27T20:54:14.079Z,99354.81
2022-12-27T20:56:41.728Z,99346.06
2022-12-27T20:59:09.169Z,99345.03
2022-12-27T21:01:36.779Z,99346.16
2022-12-27T21:04:05.037Z,99346.59
2022-12-27T21:06:32.632Z,99342.75
2022-12-27T21:09:00.147Z,99351.22
2022-12-27T21:11:31.551Z,99353.09
2022-12-27T21:14:01.141Z,99338.03
2022-12-27T21:16:31.314Z,99338.34
2022-12-27T21:19:03.582Z,99334.94
2022-12-27T21:21:33.618Z,99334.28
2022-12-27T21:24:01.523Z,99323.31
2022-12-27T21:26:35.453Z,99320.88
2022-12-27T21:29:05.131Z,99318.44
2022-12-27T21:31:33.561Z,99319.75
2022-12-27T21:34:01.141Z,99319.75
2022-12-27T21:36:31.826Z,99313.94
2022-12-27T21:38:59.429Z,99309.66
2022-12-27T21:41:29.738Z,99313.94
2022-12-27T21:43:57.308Z,99309.75
2022-12-27T21:46:27.620Z,99308.31
2022-12-27T21:48:57.643Z,99297.97
2022-12-27T21:51:27.263Z,99299.81
2022-12-27T21:53:55.271Z,99306.00
2022-12-27T21:56:23.786Z,99289.06
2022-12-27T21:58:52.076Z,99294.41
2022-12-27T22:01:21.918Z,99293.00
2022-12-27T22:03:51.862Z,99292.53
2022-12-27T22:06:19.462Z,99295.06
2022-12-27T22:08:49.479Z,99283.06
2022-12-27T22:11:18.330Z,99286.81
2022-12-27T22:13:46.162Z,99281.94
2022-12-27T22:16:17.153Z,99285.25
2022-12-27T22:18:45.330Z,99279.53
2022-12-27T22:21:16.008Z,99280.59
2022-12-27T22:23:46.183Z,99281.47
2022-12-27T22:26:26.171Z,99270.22
2022-12-27T22:28:53.831Z,99273.84
2022-12-27T22:31:24.790Z,99263.59
2022-12-27T22:33:52.582Z,99266.63
2022-12-27T22:36:22.945Z,99264.78
2022-12-27T22:38:51.172Z,99269.47
2022-12-27T22:41:23.410Z,99259.16
2022-12-27T22:43:56.502Z,99260.50
2022-12-27T22:46:24.394Z,99271.81
2022-12-27T22:48:57.699Z,99255.84
2022-12-27T22:51:33.665Z,99266.16
2022-12-27T22:54:02.189Z,99259.75
2022-12-27T22:56:38.128Z,99260.03
2022-12-27T22:59:10.437Z,99250.94
2022-12-27T23:01:39.141Z,99251.81
2022-12-27T23:04:08.743Z,99254.41
2022-12-27T23:06:37.004Z,99245.19
2022-12-27T23:09:05.472Z,99244.31
2022-12-27T23:11:35.978Z,99248.50
2022-12-27T23:14:06.656Z,99249.19
2022-12-27T23:16:42.855Z,99245.75
2022-12-27T23:19:20.004Z,99245.25
2022-12-27T23:21:48.275Z,99244.00
2022-12-27T23:24:18.734Z,99239.72
2022-12-27T23:26:46.328Z,99238.47
2022-12-27T23:29:15.039Z,99238.28
2022-12-27T23:31:54.734Z,99236.63
2022-12-27T23:34:28.394Z,99224.94
2022-12-27T23:37:00.257Z,99226.41
2022-12-27T23:39:28.459Z,99218.81
2022-12-27T23:41:56.036Z,99231.44
2022-12-27T23:44:33.643Z,99234.06
2022-12-27T23:47:06.133Z,99229.69
2022-12-27T23:49:34.499Z,99230.50
2022-12-27T23:52:02.536Z,99225.44
2022-12-27T23:54:30.457Z,99217.84
2022-12-27T23:56:58.124Z,99217.84
2022-12-27T23:59:45.627Z,99223.00
